Time;durP1;ratioP1;P1;durP2;ratioP2;P2;SDS_P1;SDS_P2;PMS_P1;PMS_P2;Temp;Humidity;BMP_temperature;BMP_pressure;BME280_temperature;BME280_humidity;BME280_pressure;Samples;Min_cycle;Max_cycle;Signal;HPM_P1;HPM_P2
2021/04/04 00:01:36;;;;;;;;;;;;;;;;;;4993356;28;20353;-77
2021/04/04 00:04:03;;;;;;;;;;;;;;;;;;4977748;28;19973;-76
2021/04/04 00:06:28;;;;;;;;;;;;;;;;;;4993171;28;19925;-77
2021/04/04 00:08:54;;;;;;;;;;;;;;;;;;4993721;28;19976;-77
2021/04/04 00:11:20;;;;;;;;;;;;;;;;;;4977716;28;19926;-77
2021/04/04 00:13:46;;;;;;;;;;;;;;;;;;4973690;28;19941;-77
2021/04/04 00:16:12;;;;;;;;;;;;;;;;;;4980136;28;19930;-76
2021/04/04 00:18:41;;;;;;;;;;;;;;;;;;4994521;28;20408;-77
2021/04/04 00:21:07;;;;;;;;;;;;;;;;;;4993305;28;19972;-77
2021/04/04 00:23:32;;;;;;;;;;;;;;;;;;4993280;28;19925;-77
2021/04/04 00:25:58;;;;;;;;;;;;;;;;;;4992925;28;19926;-77
2021/04/04 00:28:24;;;;;;;;;;;;;;;;;;4995346;28;19926;-75
2021/04/04 00:30:50;;;;;;;;;;;;;;;;;;5019401;28;19932;-85
2021/04/04 00:33:16;;;;;;;;;;;;;;;;;;5019288;28;19920;-83
2021/04/04 00:35:42;;;;;;;;;;;;;;;;;;5018688;28;19932;-85
2021/04/04 00:38:09;;;;;;;;;;;;;;;;;;5003204;28;19986;-86
2021/04/04 00:40:36;;;;;;;;;;;;;;;;;;5003325;28;19937;-81
2021/04/04 00:43:02;;;;;;;;;;;;;;;;;;5003169;28;19922;-81
2021/04/04 00:45:30;;;;;;;;;;;;;;;;;;5018508;28;19914;-80
2021/04/04 00:47:56;;;;;;;;;;;;;;;;;;5019191;28;20503;-78
2021/04/04 00:50:23;;;;;;;;;;;;;;;;;;5019714;28;20225;-79
2021/04/04 00:52:49;;;;;;;;;;;;;;;;;;5019369;28;19937;-79
2021/04/04 00:55:15;;;;;;;;;;;;;;;;;;5018999;28;19937;-80
2021/04/04 00:57:41;;;;;;;;;;;;;;;;;;5019545;28;19918;-79
2021/04/04 01:00:08;;;;;;;;;;;;;;;;;;5015354;28;19910;-79
2021/04/04 01:02:35;;;;;;;;;;;;;;;;;;5000127;28;19918;-78
2021/04/04 01:05:03;;;;;;;;;;;;;;;;;;4999775;28;19926;-79
2021/04/04 01:07:29;;;;;;;;;;;;;;;;;;4999041;28;19942;-77
2021/04/04 01:09:55;;;;;;;;;;;;;;;;;;4982501;28;19926;-77
2021/04/04 01:12:41;;;;;;;;;;;;;;;;;;4998437;28;19930;-79
2021/04/04 01:15:13;;;;;;;;;;;;;;;;;;4999426;28;19941;-78
2021/04/04 01:17:39;;;;;;;;;;;;;;;;;;4999189;28;19914;-79
2021/04/04 01:20:14;;;;;;;;;;;;;;;;;;4983436;28;19917;-80
2021/04/04 01:22:40;;;;;;;;;;;;;;;;;;4999460;28;19910;-77
2021/04/04 01:25:09;;;;;;;;;;;;;;;;;;4993258;28;19926;-79
2021/04/04 01:27:44;;;;;;;;;;;;;;;;;;4998294;28;19914;-80
2021/04/04 01:30:14;;;;;;;;;;;;;;;;;;4983417;28;19910;-78
2021/04/04 01:32:40;;;;;;;;;;;;;;;;;;4983726;28;19911;-79
2021/04/04 01:35:08;;;;;;;;;;;;;;;;;;4987609;28;19926;-79
2021/04/04 01:37:34;;;;;;;;;;;;;;;;;;5000660;28;20415;-77
2021/04/04 01:40:00;;;;;;;;;;;;;;;;;;5018689;28;19914;-79
2021/04/04 01:42:26;;;;;;;;;;;;;;;;;;5018016;28;19937;-79
2021/04/04 01:44:52;;;;;;;;;;;;;;;;;;5016629;28;19949;-78
2021/04/04 01:47:18;;;;;;;;;;;;;;;;;;5015912;28;19913;-78
2021/04/04 01:49:44;;;;;;;;;;;;;;;;;;5017582;28;19913;-80
2021/04/04 01:52:11;;;;;;;;;;;;;;;;;;5018026;28;19914;-80
2021/04/04 01:54:37;;;;;;;;;;;;;;;;;;5010312;28;19910;-79
2021/04/04 01:57:03;;;;;;;;;;;;;;;;;;4997942;28;19934;-79
2021/04/04 01:59:29;;;;;;;;;;;;;;;;;;4998461;28;20173;-80
2021/04/04 02:01:55;;;;;;;;;;;;;;;;;;4998273;28;19918;-79
2021/04/04 02:04:21;;;;;;;;;;;;;;;;;;4998315;28;19933;-77
2021/04/04 02:06:49;;;;;;;;;;;;;;;;;;4994748;28;20341;-78
2021/04/04 02:09:15;;;;;;;;;;;;;;;;;;4975044;28;19958;-78
2021/04/04 02:11:45;;;;;;;;;;;;;;;;;;4973854;28;19926;-78
2021/04/04 02:14:12;;;;;;;;;;;;;;;;;;4973359;28;19957;-78
2021/04/04 02:16:57;;;;;;;;;;;;;;;;;;4973605;28;19969;-78
2021/04/04 02:19:24;;;;;;;;;;;;;;;;;;4994003;28;19965;-78
2021/04/04 02:21:50;;;;;;;;;;;;;;;;;;4994295;28;20009;-78
2021/04/04 02:24:17;;;;;;;;;;;;;;;;;;4996308;28;20285;-78
2021/04/04 02:26:43;;;;;;;;;;;;;;;;;;4981802;28;19992;-79
2021/04/04 02:29:09;;;;;;;;;;;;;;;;;;4993324;28;19926;-78
2021/04/04 02:31:43;;;;;;;;;;;;;;;;;;4978320;28;19930;-78
2021/04/04 02:34:10;;;;;;;;;;;;;;;;;;4961958;28;20344;-78
2021/04/04 02:36:36;;;;;;;;;;;;;;;;;;4977518;28;20404;-77
2021/04/04 02:39:08;;;;;;;;;;;;;;;;;;4960286;28;19930;-77
2021/04/04 02:41:34;;;;;;;;;;;;;;;;;;4968555;28;19926;-77
2021/04/04 02:44:00;;;;;;;;;;;;;;;;;;4995357;28;19980;-77
2021/04/04 02:46:26;;;;;;;;;;;;;;;;;;4994748;28;20355;-77
2021/04/04 02:48:57;;;;;;;;;;;;;;;;;;4995536;28;19925;-77
2021/04/04 02:51:25;;;;;;;;;;;;;;;;;;4995294;28;19926;-78
2021/04/04 02:53:52;;;;;;;;;;;;;;;;;;4986340;28;19930;-77
2021/04/04 02:56:19;;;;;;;;;;;;;;;;;;4981380;28;19925;-77
2021/04/04 02:58:45;;;;;;;;;;;;;;;;;;4995017;28;19926;-76
2021/04/04 03:01:11;;;;;;;;;;;;;;;;;;4994907;28;19980;-77
2021/04/04 03:03:38;;;;;;;;;;;;;;;;;;4994798;28;19953;-77
2021/04/04 03:06:04;;;;;;;;;;;;;;;;;;4993446;28;19925;-77
2021/04/04 03:08:30;;;;;;;;;;;;;;;;;;4994701;28;19949;-76
2021/04/04 03:10:57;;;;;;;;;;;;;;;;;;4994904;28;19926;-76
2021/04/04 03:13:23;;;;;;;;;;;;;;;;;;4994494;28;20285;-77
2021/04/04 03:15:49;;;;;;;;;;;;;;;;;;4993877;28;20439;-76
2021/04/04 03:18:16;;;;;;;;;;;;;;;;;;4979004;28;19972;-80
2021/04/04 03:20:42;;;;;;;;;;;;;;;;;;4975641;28;19981;-79
2021/04/04 03:23:08;;;;;;;;;;;;;;;;;;4959799;28;19961;-79
2021/04/04 03:25:34;;;;;;;;;;;;;;;;;;4970363;28;20369;-77
2021/04/04 03:28:00;;;;;;;;;;;;;;;;;;4994337;28;19932;-78
2021/04/04 03:30:35;;;;;;;;;;;;;;;;;;4977975;28;19926;-78
2021/04/04 03:33:05;;;;;;;;;;;;;;;;;;4994493;28;19930;-77
2021/04/04 03:35:31;;;;;;;;;;;;;;;;;;4975000;28;19937;-77
2021/04/04 03:37:58;;;;;;;;;;;;;;;;;;4974808;28;19930;-77
2021/04/04 03:40:24;;;;;;;;;;;;;;;;;;4958665;28;19926;-77
2021/04/04 03:42:50;;;;;;;;;;;;;;;;;;4983279;28;19929;-76
2021/04/04 03:45:16;;;;;;;;;;;;;;;;;;4977706;28;20456;-76
2021/04/04 03:47:43;;;;;;;;;;;;;;;;;;4993656;28;19926;-77
2021/04/04 03:50:09;;;;;;;;;;;;;;;;;;4992845;28;20386;-78
2021/04/04 03:52:36;;;;;;;;;;;;;;;;;;4974271;28;19980;-77
2021/04/04 03:55:03;;;;;;;;;;;;;;;;;;4974428;28;19965;-77
2021/04/04 03:57:29;;;;;;;;;;;;;;;;;;4974007;28;20381;-77
2021/04/04 03:59:55;;;;;;;;;;;;;;;;;;4974657;28;20013;-77
2021/04/04 04:02:21;;;;;;;;;;;;;;;;;;4974379;28;19926;-77
2021/04/04 04:04:48;;;;;;;;;;;;;;;;;;4974123;28;19984;-77
2021/04/04 04:07:13;;;;;;;;;;;;;;;;;;4973638;28;20309;-77
2021/04/04 04:09:39;;;;;;;;;;;;;;;;;;4974042;28;19977;-77
2021/04/04 04:12:05;;;;;;;;;;;;;;;;;;4974103;28;19926;-77
2021/04/04 04:14:32;;;;;;;;;;;;;;;;;;4973658;28;19927;-78
2021/04/04 04:16:58;;;;;;;;;;;;;;;;;;4974043;28;19977;-75
2021/04/04 04:19:25;;;;;;;;;;;;;;;;;;4974301;28;19969;-75
2021/04/04 04:21:51;;;;;;;;;;;;;;;;;;4987604;28;19926;-75
2021/04/04 04:24:17;;;;;;;;;;;;;;;;;;4993924;28;19996;-76
2021/04/04 04:26:44;;;;;;;;;;;;;;;;;;4992862;28;19930;-77
2021/04/04 04:29:10;;;;;;;;;;;;;;;;;;4993203;28;19984;-76
2021/04/04 04:31:37;;;;;;;;;;;;;;;;;;4976925;28;19930;-77
2021/04/04 04:34:04;;;;;;;;;;;;;;;;;;4993288;28;19996;-77
2021/04/04 04:36:30;;;;;;;;;;;;;;;;;;4976432;28;19926;-76
2021/04/04 04:38:56;;;;;;;;;;;;;;;;;;4992914;28;20274;-76
2021/04/04 04:41:22;;;;;;;;;;;;;;;;;;4992873;28;19976;-76
2021/04/04 04:43:52;;;;;;;;;;;;;;;;;;4976449;28;20435;-76
2021/04/04 04:46:18;;;;;;;;;;;;;;;;;;5024725;28;19925;-76
2021/04/04 04:48:44;;;;;;;;;;;;;;;;;;4992681;28;19980;-76
2021/04/04 04:51:10;;;;;;;;;;;;;;;;;;4993946;28;19930;-76
2021/04/04 04:53:36;;;;;;;;;;;;;;;;;;5024999;28;19926;-76
2021/04/04 04:56:03;;;;;;;;;;;;;;;;;;5009123;28;19930;-77
2021/04/04 04:58:33;;;;;;;;;;;;;;;;;;4993951;28;19972;-76
2021/04/04 05:01:03;;;;;;;;;;;;;;;;;;5008892;28;20013;-78
2021/04/04 05:03:29;;;;;;;;;;;;;;;;;;4992483;28;19930;-77
2021/04/04 05:05:59;;;;;;;;;;;;;;;;;;4992049;28;19980;-76
2021/04/04 05:08:25;;;;;;;;;;;;;;;;;;4956923;28;19973;-76
2021/04/04 05:10:51;;;;;;;;;;;;;;;;;;4957473;28;20020;-76
2021/04/04 05:13:17;;;;;;;;;;;;;;;;;;4973372;28;19926;-78
2021/04/04 05:15:44;;;;;;;;;;;;;;;;;;4972163;28;19926;-76
2021/04/04 05:18:10;;;;;;;;;;;;;;;;;;4978912;28;19972;-77
2021/04/04 05:20:37;;;;;;;;;;;;;;;;;;4976117;28;20408;-79
2021/04/04 05:23:03;;;;;;;;;;;;;;;;;;4997796;28;19933;-78
2021/04/04 05:25:29;;;;;;;;;;;;;;;;;;4994621;28;19972;-78
2021/04/04 05:27:58;;;;;;;;;;;;;;;;;;5012715;28;20004;-78
2021/04/04 05:30:25;;;;;;;;;;;;;;;;;;5012464;28;19925;-76
2021/04/04 05:32:51;;;;;;;;;;;;;;;;;;5012027;28;20376;-76
2021/04/04 05:35:24;;;;;;;;;;;;;;;;;;5011633;28;20380;-76
2021/04/04 05:37:50;;;;;;;;;;;;;;;;;;5012001;28;19991;-76
2021/04/04 05:40:19;;;;;;;;;;;;;;;;;;4995353;28;19925;-76
2021/04/04 05:42:50;;;;;;;;;;;;;;;;;;5011370;28;19957;-76
2021/04/04 05:45:18;;;;;;;;;;;;;;;;;;5016286;23;19960;-72
2021/04/04 05:47:49;;;;;;;;;;;;;;;;;;4991466;28;19980;-71
2021/04/04 05:50:24;;;;;;;;;;;;;;;;;;4992227;28;20450;-72
2021/04/04 05:52:56;;;;;;;;;;;;;;;;;;4994628;28;19941;-72
2021/04/04 05:55:22;;;;;;;;;;;;;;;;;;4992401;28;19926;-72
2021/04/04 05:57:52;;;;;;;;;;;;;;;;;;4993174;28;19949;-73
2021/04/04 06:00:22;;;;;;;;;;;;;;;;;;4992405;28;20354;-72
2021/04/04 06:02:51;;;;;;;;;;;;;;;;;;4991356;28;20410;-73
2021/04/04 06:05:23;;;;;;;;;;;;;;;;;;4983155;28;19984;-73
2021/04/04 06:08:12;;;;;;;;;;;;;;;;;;4986620;28;19926;-73
2021/04/04 06:10:38;;;;;;;;;;;;;;;;;;4972130;28;19926;-73
2021/04/04 06:13:16;;;;;;;;;;;;;;;;;;4975318;28;19926;-74
2021/04/04 06:15:48;;;;;;;;;;;;;;;;;;4991134;28;19977;-73
2021/04/04 06:18:14;;;;;;;;;;;;;;;;;;4993195;28;20372;-73
2021/04/04 06:20:48;;;;;;;;;;;;;;;;;;4993578;28;19926;-73
2021/04/04 06:23:25;;;;;;;;;;;;;;;;;;5008126;28;19926;-73
2021/04/04 06:25:55;;;;;;;;;;;;;;;;;;5007293;28;20376;-72
2021/04/04 06:28:35;;;;;;;;;;;;;;;;;;4992971;28;20031;-74
2021/04/04 06:31:10;;;;;;;;;;;;;;;;;;5007681;28;20335;-73
2021/04/04 06:33:39;;;;;;;;;;;;;;;;;;4992604;28;19973;-73
2021/04/04 06:36:09;;;;;;;;;;;;;;;;;;4992040;28;19973;-74
2021/04/04 06:38:38;;;;;;;;;;;;;;;;;;4987860;28;19976;-74
2021/04/04 06:41:16;;;;;;;;;;;;;;;;;;4973110;28;19932;-74
2021/04/04 06:44:01;;;;;;;;;;;;;;;;;;4972975;28;19926;-75
2021/04/04 06:46:27;;;;;;;;;;;;;;;;;;4972061;28;20377;-75
2021/04/04 06:49:11;;;;;;;;;;;;;;;;;;4973282;28;20025;-74
2021/04/04 06:51:56;;;;;;;;;;;;;;;;;;4973155;28;19974;-75
2021/04/04 06:54:40;;;;;;;;;;;;;;;;;;4973167;28;20164;-72
2021/04/04 06:57:06;;;;;;;;;;;;;;;;;;4971564;28;20352;-73
2021/04/04 06:59:32;;;;;;;;;;;;;;;;;;4973616;28;19943;-73
2021/04/04 07:02:01;;;;;;;;;;;;;;;;;;4973199;28;19926;-72
2021/04/04 07:04:38;;;;;;;;;;;;;;;;;;4988540;28;19926;-74
2021/04/04 07:07:23;;;;;;;;;;;;;;;;;;5006330;28;20251;-72
2021/04/04 07:09:58;;;;;;;;;;;;;;;;;;4992082;28;20281;-71
2021/04/04 07:12:30;;;;;;;;;;;;;;;;;;4981375;28;20447;-72
2021/04/04 07:15:06;;;;;;;;;;;;;;;;;;4989209;28;19969;-73
2021/04/04 07:17:43;;;;;;;;;;;;;;;;;;4988553;28;19934;-72
2021/04/04 07:20:10;;;;;;;;;;;;;;;;;;4989064;28;19930;-72
2021/04/04 07:22:45;;;;;;;;;;;;;;;;;;4987108;28;19984;-72
2021/04/04 07:25:20;;;;;;;;;;;;;;;;;;4992617;28;20285;-71
2021/04/04 07:27:52;;;;;;;;;;;;;;;;;;4994062;28;19958;-72
2021/04/04 07:30:35;;;;;;;;;;;;;;;;;;4994054;28;19926;-72
2021/04/04 07:33:20;;;;;;;;;;;;;;;;;;5008594;28;20367;-72
2021/04/04 07:35:48;;;;;;;;;;;;;;;;;;4991805;28;20047;-72
2021/04/04 07:38:17;;;;;;;;;;;;;;;;;;5006244;28;19977;-71
2021/04/04 07:40:46;;;;;;;;;;;;;;;;;;4987648;28;19930;-72
2021/04/04 07:43:12;;;;;;;;;;;;;;;;;;4974345;28;19977;-72
2021/04/04 07:45:46;;;;;;;;;;;;;;;;;;4983052;28;20644;-71
2021/04/04 07:48:12;;;;;;;;;;;;;;;;;;4988528;28;19930;-71
2021/04/04 07:51:08;;;;;;;;;;;;;;;;;;4979748;28;19930;-71
2021/04/04 07:53:55;;;;;;;;;;;;;;;;;;4993449;28;19980;-72
2021/04/04 07:56:44;;;;;;;;;;;;;;;;;;5005105;28;19930;-73
2021/04/04 07:59:10;;;;;;;;;;;;;;;;;;4987132;28;19930;-73
2021/04/04 08:01:39;;;;;;;;;;;;;;;;;;4975295;28;19984;-74
2021/04/04 08:04:09;;;;;;;;;;;;;;;;;;4990322;28;20427;-76
2021/04/04 08:06:35;;;;;;;;;;;;;;;;;;4987375;28;19965;-74
2021/04/04 08:09:03;;;;;;;;;;;;;;;;;;4992002;28;19980;-74
2021/04/04 08:11:55;;;;;;;;;;;;;;;;;;5007415;28;19949;-74
2021/04/04 08:14:37;;;;;;;;;;;;;;;;;;4994077;28;20392;-73
2021/04/04 08:17:03;;;;;;;;;;;;;;;;;;5005090;28;19965;-72
2021/04/04 08:19:29;;;;;;;;;;;;;;;;;;4973126;28;19985;-72
2021/04/04 08:22:00;;;;;;;;;;;;;;;;;;4972173;28;19984;-72
2021/04/04 08:24:32;;;;;;;;;;;;;;;;;;4987904;28;19989;-73
2021/04/04 08:27:01;;;;;;;;;;;;;;;;;;4978603;28;19926;-73
2021/04/04 08:29:32;;;;;;;;;;;;;;;;;;4979550;28;20450;-73
2021/04/04 08:32:05;;;;;;;;;;;;;;;;;;4982485;28;19926;-72
2021/04/04 08:34:37;;;;;;;;;;;;;;;;;;4987496;28;20406;-72
2021/04/04 08:37:12;;;;;;;;;;;;;;;;;;4970940;28;19979;-75
2021/04/04 08:39:38;;;;;;;;;;;;;;;;;;4989899;28;19937;-72
2021/04/04 08:42:05;;;;;;;;;;;;;;;;;;4979332;28;20384;-72
2021/04/04 08:44:30;;;;;;;;;;;;;;;;;;4957818;28;19925;-72
2021/04/04 08:46:58;;;;;;;;;;;;;;;;;;4992108;28;19926;-72
2021/04/04 08:49:24;;;;;;;;;;;;;;;;;;4998058;28;19974;-77
2021/04/04 08:51:51;;;;;;;;;;;;;;;;;;4979492;28;20017;-74
2021/04/04 08:54:19;;;;;;;;;;;;;;;;;;4983549;28;19933;-73
2021/04/04 08:56:46;;;;;;;;;;;;;;;;;;4982452;28;19926;-74
2021/04/04 08:59:12;;;;;;;;;;;;;;;;;;4978257;28;19933;-75
2021/04/04 09:01:39;;;;;;;;;;;;;;;;;;4979351;28;20388;-75
2021/04/04 09:04:06;;;;;;;;;;;;;;;;;;4976219;28;19930;-75
2021/04/04 09:06:39;;;;;;;;;;;;;;;;;;4979251;28;19930;-75
2021/04/04 09:09:19;;;;;;;;;;;;;;;;;;4982556;28;19972;-74
2021/04/04 09:11:49;;;;;;;;;;;;;;;;;;4958808;28;19930;-74
2021/04/04 09:14:18;;;;;;;;;;;;;;;;;;4980904;28;19980;-76
2021/04/04 09:16:54;;;;;;;;;;;;;;;;;;4979741;28;20365;-75
2021/04/04 09:19:40;;;;;;;;;;;;;;;;;;4977819;28;19957;-76
2021/04/04 09:22:19;;;;;;;;;;;;;;;;;;4979758;28;20307;-76
2021/04/04 09:24:48;;;;;;;;;;;;;;;;;;4981914;28;20026;-76
2021/04/04 09:27:17;;;;;;;;;;;;;;;;;;4981916;28;19926;-74
2021/04/04 09:29:47;;;;;;;;;;;;;;;;;;4962764;28;19926;-76
2021/04/04 09:32:16;;;;;;;;;;;;;;;;;;4979434;28;19934;-75
2021/04/04 09:34:43;;;;;;;;;;;;;;;;;;4981129;28;19934;-76
2021/04/04 09:37:09;;;;;;;;;;;;;;;;;;4962655;28;19933;-75
2021/04/04 09:39:39;;;;;;;;;;;;;;;;;;4977550;28;20008;-75
2021/04/04 09:42:05;;;;;;;;;;;;;;;;;;4999620;28;19965;-75
2021/04/04 09:44:31;;;;;;;;;;;;;;;;;;4978129;28;20028;-75
2021/04/04 09:47:01;;;;;;;;;;;;;;;;;;4981959;28;19926;-76
2021/04/04 09:49:37;;;;;;;;;;;;;;;;;;4977526;28;19977;-76
2021/04/04 09:52:20;;;;;;;;;;;;;;;;;;4981907;28;19993;-75
2021/04/04 09:54:54;;;;;;;;;;;;;;;;;;4979785;28;20136;-76
2021/04/04 09:57:20;;;;;;;;;;;;;;;;;;4981171;28;20447;-76
2021/04/04 09:59:47;;;;;;;;;;;;;;;;;;4975761;28;19926;-76
2021/04/04 10:02:13;;;;;;;;;;;;;;;;;;4980262;28;19934;-76
2021/04/04 10:04:42;;;;;;;;;;;;;;;;;;4976788;28;19949;-73
2021/04/04 10:07:08;;;;;;;;;;;;;;;;;;4976456;28;19969;-72
2021/04/04 10:09:38;;;;;;;;;;;;;;;;;;4981053;28;19949;-73
2021/04/04 10:12:04;;;;;;;;;;;;;;;;;;4981686;28;20389;-71
2021/04/04 10:14:30;;;;;;;;;;;;;;;;;;4975969;28;19980;-71
2021/04/04 10:17:09;;;;;;;;;;;;;;;;;;4976229;28;20332;-71
2021/04/04 10:19:53;;;;;;;;;;;;;;;;;;4977620;28;20348;-72
2021/04/04 10:22:20;;;;;;;;;;;;;;;;;;4981015;28;19965;-71
2021/04/04 10:24:46;;;;;;;;;;;;;;;;;;4979874;28;19932;-71
2021/04/04 10:27:19;;;;;;;;;;;;;;;;;;4977792;28;19926;-69
2021/04/04 10:29:47;;;;;;;;;;;;;;;;;;4980602;28;20396;-70
2021/04/04 10:32:13;;;;;;;;;;;;;;;;;;4979182;28;20377;-71
2021/04/04 10:34:43;;;;;;;;;;;;;;;;;;4983048;28;19977;-71
2021/04/04 10:37:09;;;;;;;;;;;;;;;;;;4979149;28;20332;-72
2021/04/04 10:39:35;;;;;;;;;;;;;;;;;;4983672;28;19980;-75
2021/04/04 10:42:14;;;;;;;;;;;;;;;;;;4992997;28;19926;-72
2021/04/04 10:44:39;;;;;;;;;;;;;;;;;;4981749;28;19929;-75
2021/04/04 10:47:18;;;;;;;;;;;;;;;;;;4977839;28;20361;-69
2021/04/04 10:49:45;;;;;;;;;;;;;;;;;;4955115;28;20896;-71
2021/04/04 10:52:11;;;;;;;;;;;;;;;;;;4985826;28;19962;-73
2021/04/04 10:54:37;;;;;;;;;;;;;;;;;;4982413;28;19930;-70
2021/04/04 10:57:03;;;;;;;;;;;;;;;;;;4980791;28;19961;-70
2021/04/04 10:59:29;;;;;;;;;;;;;;;;;;4982050;28;19930;-71
2021/04/04 11:01:55;;;;;;;;;;;;;;;;;;4981858;28;20431;-71
2021/04/04 11:04:21;;;;;;;;;;;;;;;;;;4981812;28;19929;-70
2021/04/04 11:06:47;;;;;;;;;;;;;;;;;;4983225;28;20336;-70
2021/04/04 11:09:13;;;;;;;;;;;;;;;;;;4982934;28;19933;-70
2021/04/04 11:11:41;;;;;;;;;;;;;;;;;;4983075;28;20016;-70
2021/04/04 11:14:07;;;;;;;;;;;;;;;;;;4980961;28;19930;-70
2021/04/04 11:16:33;;;;;;;;;;;;;;;;;;4979054;28;19929;-70
2021/04/04 11:18:59;;;;;;;;;;;;;;;;;;4983478;28;20427;-70
2021/04/04 11:21:25;;;;;;;;;;;;;;;;;;4979848;28;19930;-71
2021/04/04 11:23:51;;;;;;;;;;;;;;;;;;4980551;28;20248;-71
2021/04/04 11:26:23;;;;;;;;;;;;;;;;;;4984607;28;19981;-71
2021/04/04 11:29:09;;;;;;;;;;;;;;;;;;4982474;28;19988;-71
2021/04/04 11:31:36;;;;;;;;;;;;;;;;;;4984354;28;19952;-70
2021/04/04 11:34:20;;;;;;;;;;;;;;;;;;4984594;28;19980;-70
2021/04/04 11:36:46;;;;;;;;;;;;;;;;;;4980111;28;20032;-70
2021/04/04 11:39:12;;;;;;;;;;;;;;;;;;4982804;28;19930;-70
2021/04/04 11:41:46;;;;;;;;;;;;;;;;;;4983405;28;19929;-70
2021/04/04 11:44:15;;;;;;;;;;;;;;;;;;4987368;28;19972;-70
2021/04/04 11:46:46;;;;;;;;;;;;;;;;;;5018600;23;19963;-69
2021/04/04 11:49:31;;;;;;;;;;;;;;;;;;4983133;28;19926;-70
2021/04/04 11:51:57;;;;;;;;;;;;;;;;;;5004008;28;19979;-70
2021/04/04 11:54:42;;;;;;;;;;;;;;;;;;5004194;28;19934;-71
2021/04/04 11:57:08;;;;;;;;;;;;;;;;;;4981660;28;19926;-70
2021/04/04 11:59:34;;;;;;;;;;;;;;;;;;5008628;28;20422;-76
2021/04/04 12:02:00;;;;;;;;;;;;;;;;;;5007340;28;20368;-71
2021/04/04 12:04:32;;;;;;;;;;;;;;;;;;4991408;28;19926;-71
2021/04/04 12:09:26;;;;;;;;;;;;;;;;;;5047409;28;19935;-70
2021/04/04 12:11:52;;;;;;;;;;;;;;;;;;5029109;28;20396;-71
2021/04/04 12:14:18;;;;;;;;;;;;;;;;;;5047353;28;19939;-70
2021/04/04 12:16:46;;;;;;;;;;;;;;;;;;5028521;28;20006;-70
2021/04/04 12:19:30;;;;;;;;;;;;;;;;;;5045326;28;19952;-70
2021/04/04 12:21:59;;;;;;;;;;;;;;;;;;5022702;28;20438;-70
2021/04/04 12:24:57;;;;;;;;;;;;;;;;;;5009376;28;19925;-70
2021/04/04 12:27:25;;;;;;;;;;;;;;;;;;5009652;28;19937;-70
2021/04/04 12:29:52;;;;;;;;;;;;;;;;;;5007583;28;19971;-72
2021/04/04 12:32:29;;;;;;;;;;;;;;;;;;5003871;28;19926;-68
2021/04/04 12:34:56;;;;;;;;;;;;;;;;;;5017778;28;19929;-68
2021/04/04 12:37:23;;;;;;;;;;;;;;;;;;5017313;28;20424;-73
2021/04/04 12:39:52;;;;;;;;;;;;;;;;;;5020603;28;19930;-71
2021/04/04 12:42:19;;;;;;;;;;;;;;;;;;5022281;28;20067;-72
2021/04/04 12:44:46;;;;;;;;;;;;;;;;;;5022186;28;19956;-72
2021/04/04 12:47:13;;;;;;;;;;;;;;;;;;5016037;28;19964;-73
2021/04/04 12:49:39;;;;;;;;;;;;;;;;;;5016835;28;20064;-71
2021/04/04 12:52:06;;;;;;;;;;;;;;;;;;5000529;28;19926;-71
2021/04/04 12:54:32;;;;;;;;;;;;;;;;;;5018961;28;19929;-72
2021/04/04 12:56:58;;;;;;;;;;;;;;;;;;5036481;28;19983;-73
2021/04/04 12:59:24;;;;;;;;;;;;;;;;;;5037509;28;19925;-72
2021/04/04 13:01:53;;;;;;;;;;;;;;;;;;5040501;28;19948;-72
2021/04/04 13:04:23;;;;;;;;;;;;;;;;;;5040336;28;19924;-70
2021/04/04 13:06:49;;;;;;;;;;;;;;;;;;5037588;28;20357;-71
2021/04/04 13:09:16;;;;;;;;;;;;;;;;;;5035601;28;19933;-71
2021/04/04 13:11:43;;;;;;;;;;;;;;;;;;5038627;28;19987;-72
2021/04/04 13:14:13;;;;;;;;;;;;;;;;;;5041505;28;19929;-72
2021/04/04 13:16:42;;;;;;;;;;;;;;;;;;5039446;28;19944;-71
2021/04/04 13:19:08;;;;;;;;;;;;;;;;;;5007696;28;19966;-72
2021/04/04 13:21:34;;;;;;;;;;;;;;;;;;5010930;28;19980;-72
2021/04/04 13:24:01;;;;;;;;;;;;;;;;;;5008813;28;19956;-71
2021/04/04 13:26:31;;;;;;;;;;;;;;;;;;5009292;28;19972;-72
2021/04/04 13:29:03;;;;;;;;;;;;;;;;;;5016530;28;19979;-71
2021/04/04 13:31:30;;;;;;;;;;;;;;;;;;5031633;28;19999;-72
2021/04/04 13:34:09;;;;;;;;;;;;;;;;;;5031714;28;20122;-73
2021/04/04 13:36:36;;;;;;;;;;;;;;;;;;5030710;28;19972;-71
2021/04/04 13:39:03;;;;;;;;;;;;;;;;;;5024397;28;20118;-71
2021/04/04 13:41:29;;;;;;;;;;;;;;;;;;5009573;28;19961;-71
2021/04/04 13:43:56;;;;;;;;;;;;;;;;;;5010923;28;20402;-71
2021/04/04 13:46:28;;;;;;;;;;;;;;;;;;5009994;28;20280;-71
2021/04/04 13:48:55;;;;;;;;;;;;;;;;;;5014262;28;19925;-73
2021/04/04 13:51:21;;;;;;;;;;;;;;;;;;5030208;28;19933;-71
2021/04/04 13:53:47;;;;;;;;;;;;;;;;;;5029214;28;19925;-71
2021/04/04 13:56:14;;;;;;;;;;;;;;;;;;5029652;28;20410;-72
2021/04/04 13:58:41;;;;;;;;;;;;;;;;;;5027229;28;20383;-72
2021/04/04 14:01:27;;;;;;;;;;;;;;;;;;5009350;28;19925;-72
2021/04/04 14:03:53;;;;;;;;;;;;;;;;;;5010442;28;19965;-72
2021/04/04 14:06:19;;;;;;;;;;;;;;;;;;5009535;28;20355;-71
2021/04/04 14:08:45;;;;;;;;;;;;;;;;;;5010321;28;19933;-73
2021/04/04 14:11:12;;;;;;;;;;;;;;;;;;5028508;28;19972;-72
2021/04/04 14:13:38;;;;;;;;;;;;;;;;;;5030742;28;20008;-72
2021/04/04 14:16:05;;;;;;;;;;;;;;;;;;5029737;28;19925;-73
2021/04/04 14:18:32;;;;;;;;;;;;;;;;;;5015240;28;19930;-72
2021/04/04 14:20:58;;;;;;;;;;;;;;;;;;5016303;28;19932;-74
2021/04/04 14:23:24;;;;;;;;;;;;;;;;;;5035978;28;20399;-73
2021/04/04 14:25:50;;;;;;;;;;;;;;;;;;5042356;28;19944;-72
2021/04/04 14:28:16;;;;;;;;;;;;;;;;;;5040794;28;20366;-73
2021/04/04 14:30:42;;;;;;;;;;;;;;;;;;5040450;28;19936;-72
2021/04/04 14:33:08;;;;;;;;;;;;;;;;;;5041640;28;19925;-71
2021/04/04 14:35:34;;;;;;;;;;;;;;;;;;5042893;28;19931;-72
2021/04/04 14:38:00;;;;;;;;;;;;;;;;;;5044051;28;20284;-72
2021/04/04 14:40:27;;;;;;;;;;;;;;;;;;5038721;28;19932;-72
2021/04/04 14:43:09;;;;;;;;;;;;;;;;;;5048568;28;20303;-72
2021/04/04 14:45:35;;;;;;;;;;;;;;;;;;5041011;28;19972;-73
2021/04/04 14:48:01;;;;;;;;;;;;;;;;;;5048777;28;19929;-73
2021/04/04 14:50:27;;;;;;;;;;;;;;;;;;5044400;28;19933;-73
2021/04/04 14:53:11;;;;;;;;;;;;;;;;;;5048895;28;20430;-73
2021/04/04 14:55:41;;;;;;;;;;;;;;;;;;5052962;28;19964;-73
2021/04/04 14:58:07;;;;;;;;;;;;;;;;;;5026367;28;19925;-73
2021/04/04 15:00:34;;;;;;;;;;;;;;;;;;5048175;28;19929;-72
2021/04/04 15:03:00;;;;;;;;;;;;;;;;;;5039396;28;20007;-69
2021/04/04 15:05:26;;;;;;;;;;;;;;;;;;5040474;28;20384;-69
2021/04/04 15:07:52;;;;;;;;;;;;;;;;;;5039262;28;19940;-72
2021/04/04 15:10:18;;;;;;;;;;;;;;;;;;5037613;28;19926;-73
2021/04/04 15:12:44;;;;;;;;;;;;;;;;;;5044016;28;20315;-73
2021/04/04 15:15:10;;;;;;;;;;;;;;;;;;5055046;28;19925;-71
2021/04/04 15:17:37;;;;;;;;;;;;;;;;;;5027236;28;20250;-71
2021/04/04 15:20:05;;;;;;;;;;;;;;;;;;5036975;28;19929;-70
2021/04/04 15:22:31;;;;;;;;;;;;;;;;;;5034446;28;19972;-71
2021/04/04 15:24:57;;;;;;;;;;;;;;;;;;5040665;28;19929;-75
2021/04/04 15:27:23;;;;;;;;;;;;;;;;;;5039978;28;19937;-70
2021/04/04 15:29:49;;;;;;;;;;;;;;;;;;5047311;28;19928;-73
2021/04/04 15:32:15;;;;;;;;;;;;;;;;;;5025462;28;19931;-70
2021/04/04 15:34:42;;;;;;;;;;;;;;;;;;5043561;28;19924;-70
2021/04/04 15:37:08;;;;;;;;;;;;;;;;;;5038426;28;19929;-72
2021/04/04 15:39:35;;;;;;;;;;;;;;;;;;5038186;28;19924;-74
2021/04/04 15:42:02;;;;;;;;;;;;;;;;;;5034764;28;19929;-74
2021/04/04 15:44:28;;;;;;;;;;;;;;;;;;5038785;28;19925;-73
2021/04/04 15:46:55;;;;;;;;;;;;;;;;;;5095086;23;19925;-78
2021/04/04 15:49:21;;;;;;;;;;;;;;;;;;5028289;28;19973;-80
2021/04/04 15:51:48;;;;;;;;;;;;;;;;;;5010809;28;19925;-80
2021/04/04 15:54:14;;;;;;;;;;;;;;;;;;5029550;28;19947;-80
2021/04/04 15:56:42;;;;;;;;;;;;;;;;;;5033716;28;20385;-80
2021/04/04 15:59:08;;;;;;;;;;;;;;;;;;5046481;28;19929;-79
2021/04/04 16:01:35;;;;;;;;;;;;;;;;;;5030448;28;19929;-78
2021/04/04 16:04:01;;;;;;;;;;;;;;;;;;5036736;28;20312;-80
2021/04/04 16:06:27;;;;;;;;;;;;;;;;;;5007677;28;19930;-79
2021/04/04 16:08:54;;;;;;;;;;;;;;;;;;5026972;28;19925;-79
2021/04/04 16:11:31;;;;;;;;;;;;;;;;;;5025285;28;20226;-79
2021/04/04 16:13:58;;;;;;;;;;;;;;;;;;5012764;28;19929;-80
2021/04/04 16:16:25;;;;;;;;;;;;;;;;;;5023966;28;19925;-80
2021/04/04 16:18:52;;;;;;;;;;;;;;;;;;5014446;28;19925;-80
2021/04/04 16:21:19;;;;;;;;;;;;;;;;;;5008041;28;19925;-80
2021/04/04 16:23:51;;;;;;;;;;;;;;;;;;5009940;28;19925;-77
2021/04/04 16:26:18;;;;;;;;;;;;;;;;;;5011311;28;19937;-76
2021/04/04 16:28:48;;;;;;;;;;;;;;;;;;5037891;28;20016;-81
2021/04/04 16:31:17;;;;;;;;;;;;;;;;;;5011962;28;19926;-81
2021/04/04 16:33:43;;;;;;;;;;;;;;;;;;5030771;28;19932;-77
2021/04/04 16:36:10;;;;;;;;;;;;;;;;;;5010405;28;19952;-80
2021/04/04 16:38:36;;;;;;;;;;;;;;;;;;5021950;28;20555;-80
2021/04/04 16:41:03;;;;;;;;;;;;;;;;;;5010311;28;20369;-80
2021/04/04 16:43:29;;;;;;;;;;;;;;;;;;5007137;28;19937;-80
2021/04/04 16:45:55;;;;;;;;;;;;;;;;;;5009441;28;19931;-80
2021/04/04 16:48:23;;;;;;;;;;;;;;;;;;5008456;28;20371;-80
2021/04/04 16:50:52;;;;;;;;;;;;;;;;;;5009064;28;19925;-81
2021/04/04 16:53:27;;;;;;;;;;;;;;;;;;5008532;28;19929;-82
2021/04/04 16:55:53;;;;;;;;;;;;;;;;;;5006226;28;19937;-81
2021/04/04 16:58:22;;;;;;;;;;;;;;;;;;5027976;28;20008;-79
2021/04/04 17:00:48;;;;;;;;;;;;;;;;;;5023725;28;20380;-79